sensor_id;sensor_type;location;lat;lon;timestamp;P1;durP1;ratioP1;P2;durP2;ratioP2
50301;SDS011;36550;50.472;19.744;2022-12-31T00:01:41;78.67;;;37.80;;
50301;SDS011;36550;50.472;19.744;2022-12-31T00:04:26;82.17;;;39.75;;
50301;SDS011;36550;50.472;19.744;2022-12-31T00:07:10;74.92;;;36.00;;
50301;SDS011;36550;50.472;19.744;2022-12-31T00:09:54;76.02;;;34.23;;
50301;SDS011;36550;50.472;19.744;2022-12-31T00:12:39;53.38;;;25.52;;
50301;SDS011;36550;50.472;19.744;2022-12-31T00:15:23;51.45;;;24.65;;
50301;SDS011;36550;50.472;19.744;2022-12-31T00:18:07;45.90;;;21.40;;
50301;SDS011;36550;50.472;19.744;2022-12-31T00:20:52;40.60;;;19.87;;
50301;SDS011;36550;50.472;19.744;2022-12-31T00:23:36;43.30;;;19.40;;
50301;SDS011;36550;50.472;19.744;2022-12-31T00:26:22;42.53;;;18.67;;
50301;SDS011;36550;50.472;19.744;2022-12-31T00:29:10;45.28;;;19.55;;
50301;SDS011;36550;50.472;19.744;2022-12-31T00:31:54;41.48;;;18.57;;
50301;SDS011;36550;50.472;19.744;2022-12-31T00:34:39;39.30;;;19.00;;
50301;SDS011;36550;50.472;19.744;2022-12-31T00:37:23;38.67;;;19.00;;
50301;SDS011;36550;50.472;19.744;2022-12-31T00:40:08;38.90;;;18.73;;
50301;SDS011;36550;50.472;19.744;2022-12-31T00:42:53;35.90;;;17.67;;
50301;SDS011;36550;50.472;19.744;2022-12-31T00:45:38;38.70;;;17.50;;
50301;SDS011;36550;50.472;19.744;2022-12-31T00:48:22;34.18;;;16.12;;
50301;SDS011;36550;50.472;19.744;2022-12-31T00:51:07;35.73;;;17.25;;
50301;SDS011;36550;50.472;19.744;2022-12-31T00:53:54;33.00;;;15.90;;
50301;SDS011;36550;50.472;19.744;2022-12-31T00:56:40;34.05;;;16.35;;
50301;SDS011;36550;50.472;19.744;2022-12-31T00:59:24;33.18;;;15.72;;
50301;SDS011;36550;50.472;19.744;2022-12-31T01:02:08;30.57;;;14.00;;
50301;SDS011;36550;50.472;19.744;2022-12-31T01:04:53;31.77;;;13.38;;
50301;SDS011;36550;50.472;19.744;2022-12-31T01:07:37;23.18;;;11.83;;
50301;SDS011;36550;50.472;19.744;2022-12-31T01:10:21;23.75;;;11.10;;
50301;SDS011;36550;50.472;19.744;2022-12-31T01:13:25;22.93;;;11.53;;
50301;SDS011;36550;50.472;19.744;2022-12-31T01:16:10;21.60;;;10.85;;
50301;SDS011;36550;50.472;19.744;2022-12-31T01:18:57;23.85;;;10.70;;
50301;SDS011;36550;50.472;19.744;2022-12-31T01:21:44;19.70;;;10.75;;
50301;SDS011;36550;50.472;19.744;2022-12-31T01:24:29;21.42;;;11.50;;
50301;SDS011;36550;50.472;19.744;2022-12-31T01:27:14;26.17;;;11.25;;
50301;SDS011;36550;50.472;19.744;2022-12-31T01:29:58;24.10;;;11.18;;
50301;SDS011;36550;50.472;19.744;2022-12-31T01:32:42;21.80;;;9.73;;
50301;SDS011;36550;50.472;19.744;2022-12-31T01:35:27;20.27;;;9.58;;
50301;SDS011;36550;50.472;19.744;2022-12-31T01:38:11;18.87;;;9.55;;
50301;SDS011;36550;50.472;19.744;2022-12-31T01:40:55;18.42;;;9.53;;
50301;SDS011;36550;50.472;19.744;2022-12-31T01:43:41;19.73;;;10.60;;
50301;SDS011;36550;50.472;19.744;2022-12-31T01:46:33;22.15;;;10.43;;
50301;SDS011;36550;50.472;19.744;2022-12-31T01:49:52;21.37;;;9.68;;
50301;SDS011;36550;50.472;19.744;2022-12-31T01:52:34;17.07;;;9.38;;
50301;SDS011;36550;50.472;19.744;2022-12-31T01:55:26;20.10;;;10.20;;
50301;SDS011;36550;50.472;19.744;2022-12-31T01:58:20;19.12;;;9.40;;
50301;SDS011;36550;50.472;19.744;2022-12-31T02:01:12;16.73;;;8.55;;
50301;SDS011;36550;50.472;19.744;2022-12-31T02:04:03;19.02;;;8.83;;
50301;SDS011;36550;50.472;19.744;2022-12-31T02:06:57;21.12;;;8.80;;
50301;SDS011;36550;50.472;19.744;2022-12-31T02:09:44;16.35;;;8.48;;
50301;SDS011;36550;50.472;19.744;2022-12-31T02:12:29;17.42;;;8.83;;
50301;SDS011;36550;50.472;19.744;2022-12-31T02:15:13;17.73;;;9.15;;
50301;SDS011;36550;50.472;19.744;2022-12-31T02:18:22;16.65;;;8.13;;
50301;SDS011;36550;50.472;19.744;2022-12-31T02:21:27;14.58;;;7.87;;
50301;SDS011;36550;50.472;19.744;2022-12-31T02:24:31;16.03;;;8.37;;
50301;SDS011;36550;50.472;19.744;2022-12-31T02:30:33;16.90;;;8.25;;
50301;SDS011;36550;50.472;19.744;2022-12-31T02:36:20;22.02;;;9.30;;
50301;SDS011;36550;50.472;19.744;2022-12-31T02:39:11;18.73;;;9.40;;
50301;SDS011;36550;50.472;19.744;2022-12-31T02:41:57;18.77;;;9.95;;
50301;SDS011;36550;50.472;19.744;2022-12-31T02:50:42;19.90;;;10.00;;
50301;SDS011;36550;50.472;19.744;2022-12-31T02:54:00;21.80;;;10.50;;
50301;SDS011;36550;50.472;19.744;2022-12-31T02:57:09;20.15;;;9.58;;
50301;SDS011;36550;50.472;19.744;2022-12-31T03:00:08;17.57;;;9.53;;
50301;SDS011;36550;50.472;19.744;2022-12-31T03:03:14;20.30;;;10.63;;
50301;SDS011;36550;50.472;19.744;2022-12-31T03:06:00;22.27;;;10.58;;
50301;SDS011;36550;50.472;19.744;2022-12-31T03:08:47;20.57;;;9.45;;
50301;SDS011;36550;50.472;19.744;2022-12-31T03:11:49;17.17;;;8.98;;
50301;SDS011;36550;50.472;19.744;2022-12-31T03:14:52;17.70;;;9.18;;
50301;SDS011;36550;50.472;19.744;2022-12-31T03:17:37;20.30;;;11.50;;
50301;SDS011;36550;50.472;19.744;2022-12-31T03:20:23;28.38;;;13.32;;
50301;SDS011;36550;50.472;19.744;2022-12-31T03:23:39;27.98;;;14.00;;
50301;SDS011;36550;50.472;19.744;2022-12-31T03:26:28;25.23;;;13.50;;
50301;SDS011;36550;50.472;19.744;2022-12-31T03:29:12;26.50;;;14.00;;
50301;SDS011;36550;50.472;19.744;2022-12-31T03:31:56;26.07;;;13.25;;
50301;SDS011;36550;50.472;19.744;2022-12-31T03:34:40;26.27;;;14.38;;
50301;SDS011;36550;50.472;19.744;2022-12-31T03:37:25;23.45;;;12.15;;
50301;SDS011;36550;50.472;19.744;2022-12-31T03:40:10;28.62;;;13.05;;
50301;SDS011;36550;50.472;19.744;2022-12-31T03:42:56;23.02;;;10.75;;
50301;SDS011;36550;50.472;19.744;2022-12-31T03:45:40;18.80;;;10.00;;
50301;SDS011;36550;50.472;19.744;2022-12-31T03:48:25;21.15;;;9.75;;
50301;SDS011;36550;50.472;19.744;2022-12-31T03:51:09;21.97;;;10.72;;
50301;SDS011;36550;50.472;19.744;2022-12-31T03:53:53;18.87;;;9.73;;
50301;SDS011;36550;50.472;19.744;2022-12-31T03:56:38;23.45;;;10.35;;
50301;SDS011;36550;50.472;19.744;2022-12-31T03:59:22;16.15;;;9.10;;
50301;SDS011;36550;50.472;19.744;2022-12-31T04:02:06;18.30;;;9.03;;
50301;SDS011;36550;50.472;19.744;2022-12-31T04:04:50;20.37;;;9.93;;
50301;SDS011;36550;50.472;19.744;2022-12-31T04:07:35;17.80;;;9.13;;
50301;SDS011;36550;50.472;19.744;2022-12-31T04:10:19;17.73;;;8.63;;
50301;SDS011;36550;50.472;19.744;2022-12-31T04:13:04;17.98;;;8.88;;
50301;SDS011;36550;50.472;19.744;2022-12-31T04:15:49;21.25;;;9.55;;
50301;SDS011;36550;50.472;19.744;2022-12-31T04:18:34;18.05;;;9.08;;
50301;SDS011;36550;50.472;19.744;2022-12-31T04:21:18;16.62;;;9.33;;
50301;SDS011;36550;50.472;19.744;2022-12-31T04:24:03;16.75;;;9.38;;
50301;SDS011;36550;50.472;19.744;2022-12-31T04:26:48;17.83;;;9.73;;
50301;SDS011;36550;50.472;19.744;2022-12-31T04:29:32;18.42;;;8.85;;
50301;SDS011;36550;50.472;19.744;2022-12-31T04:32:18;16.77;;;8.87;;
50301;SDS011;36550;50.472;19.744;2022-12-31T04:35:02;19.12;;;9.70;;
50301;SDS011;36550;50.472;19.744;2022-12-31T04:37:47;18.00;;;8.90;;
50301;SDS011;36550;50.472;19.744;2022-12-31T04:40:31;16.90;;;8.43;;
50301;SDS011;36550;50.472;19.744;2022-12-31T04:43:15;17.12;;;9.15;;
50301;SDS011;36550;50.472;19.744;2022-12-31T04:46:00;14.40;;;7.87;;
50301;SDS011;36550;50.472;19.744;2022-12-31T04:48:44;15.65;;;8.18;;
50301;SDS011;36550;50.472;19.744;2022-12-31T04:51:29;16.87;;;8.68;;
50301;SDS011;36550;50.472;19.744;2022-12-31T04:54:14;13.28;;;7.10;;
50301;SDS011;36550;50.472;19.744;2022-12-31T04:56:58;16.87;;;8.65;;
50301;SDS011;36550;50.472;19.744;2022-12-31T04:59:43;14.95;;;7.35;;
50301;SDS011;36550;50.472;19.744;2022-12-31T05:02:28;15.60;;;7.75;;
50301;SDS011;36550;50.472;19.744;2022-12-31T05:05:13;17.03;;;9.73;;
50301;SDS011;36550;50.472;19.744;2022-12-31T05:07:57;18.27;;;9.78;;
50301;SDS011;36550;50.472;19.744;2022-12-31T05:10:42;21.42;;;10.25;;
50301;SDS011;36550;50.472;19.744;2022-12-31T05:13:31;18.55;;;9.10;;
50301;SDS011;36550;50.472;19.744;2022-12-31T05:16:15;16.00;;;8.63;;
50301;SDS011;36550;50.472;19.744;2022-12-31T05:18:59;15.10;;;7.85;;
50301;SDS011;36550;50.472;19.744;2022-12-31T05:21:44;16.37;;;8.50;;
50301;SDS011;36550;50.472;19.744;2022-12-31T05:24:29;16.25;;;9.03;;
50301;SDS011;36550;50.472;19.744;2022-12-31T05:27:14;16.10;;;8.63;;
50301;SDS011;36550;50.472;19.744;2022-12-31T05:29:58;16.23;;;8.65;;
50301;SDS011;36550;50.472;19.744;2022-12-31T05:32:43;13.30;;;7.45;;
50301;SDS011;36550;50.472;19.744;2022-12-31T05:35:28;15.90;;;8.48;;
50301;SDS011;36550;50.472;19.744;2022-12-31T05:38:13;16.37;;;8.15;;
50301;SDS011;36550;50.472;19.744;2022-12-31T05:40:58;17.82;;;9.03;;
50301;SDS011;36550;50.472;19.744;2022-12-31T05:43:46;19.55;;;9.30;;
50301;SDS011;36550;50.472;19.744;2022-12-31T05:46:30;17.87;;;9.23;;
50301;SDS011;36550;50.472;19.744;2022-12-31T05:49:14;17.15;;;9.10;;
50301;SDS011;36550;50.472;19.744;2022-12-31T05:51:58;20.27;;;9.33;;
50301;SDS011;36550;50.472;19.744;2022-12-31T05:54:43;16.80;;;9.00;;
50301;SDS011;36550;50.472;19.744;2022-12-31T05:57:27;17.65;;;9.10;;
50301;SDS011;36550;50.472;19.744;2022-12-31T06:00:11;16.75;;;9.78;;
50301;SDS011;36550;50.472;19.744;2022-12-31T06:02:56;19.57;;;10.93;;
50301;SDS011;36550;50.472;19.744;2022-12-31T06:05:41;18.70;;;9.80;;
50301;SDS011;36550;50.472;19.744;2022-12-31T06:08:25;19.77;;;11.05;;
50301;SDS011;36550;50.472;19.744;2022-12-31T06:11:10;17.27;;;10.45;;
50301;SDS011;36550;50.472;19.744;2022-12-31T06:13:54;18.35;;;10.08;;
50301;SDS011;36550;50.472;19.744;2022-12-31T06:16:40;21.37;;;10.40;;
50301;SDS011;36550;50.472;19.744;2022-12-31T06:19:25;19.50;;;10.98;;
50301;SDS011;36550;50.472;19.744;2022-12-31T06:22:09;16.90;;;8.98;;
50301;SDS011;36550;50.472;19.744;2022-12-31T06:24:53;15.90;;;8.88;;
50301;SDS011;36550;50.472;19.744;2022-12-31T06:27:37;19.50;;;9.33;;
50301;SDS011;36550;50.472;19.744;2022-12-31T06:30:22;15.48;;;9.00;;
50301;SDS011;36550;50.472;19.744;2022-12-31T06:33:06;18.37;;;9.88;;
50301;SDS011;36550;50.472;19.744;2022-12-31T06:35:55;18.05;;;9.13;;
50301;SDS011;36550;50.472;19.744;2022-12-31T06:38:40;17.67;;;8.35;;
50301;SDS011;36550;50.472;19.744;2022-12-31T06:44:10;16.48;;;9.23;;
50301;SDS011;36550;50.472;19.744;2022-12-31T06:46:54;15.78;;;9.28;;
50301;SDS011;36550;50.472;19.744;2022-12-31T06:49:38;15.20;;;8.93;;
50301;SDS011;36550;50.472;19.744;2022-12-31T06:52:23;17.25;;;9.55;;
50301;SDS011;36550;50.472;19.744;2022-12-31T06:55:08;15.15;;;8.18;;
50301;SDS011;36550;50.472;19.744;2022-12-31T06:57:53;16.17;;;9.68;;
50301;SDS011;36550;50.472;19.744;2022-12-31T07:00:44;16.05;;;8.80;;
50301;SDS011;36550;50.472;19.744;2022-12-31T07:03:45;19.32;;;10.75;;
50301;SDS011;36550;50.472;19.744;2022-12-31T07:06:50;18.62;;;10.30;;
50301;SDS011;36550;50.472;19.744;2022-12-31T07:10:00;14.68;;;8.85;;
50301;SDS011;36550;50.472;19.744;2022-12-31T07:16:16;16.25;;;9.38;;
50301;SDS011;36550;50.472;19.744;2022-12-31T07:22:45;15.00;;;9.25;;
50301;SDS011;36550;50.472;19.744;2022-12-31T07:25:30;15.58;;;7.90;;
50301;SDS011;36550;50.472;19.744;2022-12-31T07:28:30;15.10;;;8.63;;
50301;SDS011;36550;50.472;19.744;2022-12-31T07:38:07;9.03;;;5.22;;
50301;SDS011;36550;50.472;19.744;2022-12-31T07:47:27;9.53;;;5.30;;
50301;SDS011;36550;50.472;19.744;2022-12-31T07:50:16;7.87;;;4.55;;
50301;SDS011;36550;50.472;19.744;2022-12-31T07:53:02;8.58;;;4.62;;
50301;SDS011;36550;50.472;19.744;2022-12-31T07:55:48;9.53;;;5.70;;
50301;SDS011;36550;50.472;19.744;2022-12-31T08:14:12;7.45;;;4.05;;
50301;SDS011;36550;50.472;19.744;2022-12-31T08:16:55;8.50;;;3.87;;
50301;SDS011;36550;50.472;19.744;2022-12-31T08:19:41;6.62;;;3.67;;
50301;SDS011;36550;50.472;19.744;2022-12-31T08:22:41;6.63;;;3.50;;
50301;SDS011;36550;50.472;19.744;2022-12-31T08:25:44;7.60;;;4.20;;
50301;SDS011;36550;50.472;19.744;2022-12-31T08:28:55;8.20;;;4.45;;
50301;SDS011;36550;50.472;19.744;2022-12-31T08:32:21;7.17;;;4.00;;
50301;SDS011;36550;50.472;19.744;2022-12-31T08:36:12;8.75;;;3.85;;
50301;SDS011;36550;50.472;19.744;2022-12-31T08:38:55;8.70;;;3.98;;
50301;SDS011;36550;50.472;19.744;2022-12-31T08:42:00;8.13;;;3.58;;
50301;SDS011;36550;50.472;19.744;2022-12-31T08:44:56;7.72;;;4.42;;
50301;SDS011;36550;50.472;19.744;2022-12-31T08:48:03;8.23;;;4.20;;
50301;SDS011;36550;50.472;19.744;2022-12-31T08:51:02;7.60;;;4.15;;
50301;SDS011;36550;50.472;19.744;2022-12-31T08:53:48;9.20;;;4.12;;
50301;SDS011;36550;50.472;19.744;2022-12-31T08:56:34;6.58;;;3.98;;
50301;SDS011;36550;50.472;19.744;2022-12-31T08:59:28;8.00;;;4.17;;
50301;SDS011;36550;50.472;19.744;2022-12-31T09:12:05;7.60;;;4.20;;
50301;SDS011;36550;50.472;19.744;2022-12-31T09:15:20;5.73;;;3.30;;
50301;SDS011;36550;50.472;19.744;2022-12-31T09:18:11;6.55;;;3.67;;
50301;SDS011;36550;50.472;19.744;2022-12-31T09:20:56;7.50;;;3.90;;
50301;SDS011;36550;50.472;19.744;2022-12-31T09:23:41;8.18;;;3.58;;
50301;SDS011;36550;50.472;19.744;2022-12-31T09:29:36;7.05;;;3.50;;
50301;SDS011;36550;50.472;19.744;2022-12-31T09:35:57;7.53;;;2.95;;
50301;SDS011;36550;50.472;19.744;2022-12-31T09:38:36;4.53;;;2.52;;
50301;SDS011;36550;50.472;19.744;2022-12-31T09:55:01;5.12;;;2.22;;
50301;SDS011;36550;50.472;19.744;2022-12-31T09:57:57;6.12;;;2.80;;
50301;SDS011;36550;50.472;19.744;2022-12-31T10:00:43;4.67;;;2.67;;
50301;SDS011;36550;50.472;19.744;2022-12-31T10:13:21;5.92;;;2.37;;
50301;SDS011;36550;50.472;19.744;2022-12-31T10:16:19;5.30;;;2.35;;
50301;SDS011;36550;50.472;19.744;2022-12-31T10:19:43;4.50;;;2.42;;
50301;SDS011;36550;50.472;19.744;2022-12-31T10:26:10;3.83;;;2.10;;
50301;SDS011;36550;50.472;19.744;2022-12-31T10:48:21;5.00;;;2.67;;
50301;SDS011;36550;50.472;19.744;2022-12-31T10:51:13;4.72;;;2.60;;
50301;SDS011;36550;50.472;19.744;2022-12-31T11:10:03;4.22;;;2.15;;
50301;SDS011;36550;50.472;19.744;2022-12-31T11:13:35;5.35;;;1.87;;
50301;SDS011;36550;50.472;19.744;2022-12-31T11:19:19;6.00;;;1.90;;
50301;SDS011;36550;50.472;19.744;2022-12-31T11:22:39;4.35;;;1.87;;
50301;SDS011;36550;50.472;19.744;2022-12-31T11:29:00;4.78;;;1.85;;
50301;SDS011;36550;50.472;19.744;2022-12-31T11:32:11;6.15;;;2.27;;
50301;SDS011;36550;50.472;19.744;2022-12-31T11:35:21;3.42;;;1.60;;
50301;SDS011;36550;50.472;19.744;2022-12-31T11:38:29;4.10;;;1.70;;
50301;SDS011;36550;50.472;19.744;2022-12-31T11:41:32;3.75;;;1.92;;
50301;SDS011;36550;50.472;19.744;2022-12-31T11:44:40;4.03;;;1.80;;
50301;SDS011;36550;50.472;19.744;2022-12-31T11:54:24;4.10;;;2.02;;
50301;SDS011;36550;50.472;19.744;2022-12-31T11:57:24;4.28;;;2.00;;
50301;SDS011;36550;50.472;19.744;2022-12-31T12:00:19;4.53;;;1.87;;
50301;SDS011;36550;50.472;19.744;2022-12-31T12:03:09;4.17;;;1.80;;
50301;SDS011;36550;50.472;19.744;2022-12-31T12:05:55;5.00;;;1.77;;
50301;SDS011;36550;50.472;19.744;2022-12-31T12:08:41;4.37;;;1.95;;
50301;SDS011;36550;50.472;19.744;2022-12-31T12:11:28;3.80;;;1.70;;
50301;SDS011;36550;50.472;19.744;2022-12-31T12:14:28;4.42;;;1.98;;
50301;SDS011;36550;50.472;19.744;2022-12-31T12:17:26;2.72;;;1.52;;
50301;SDS011;36550;50.472;19.744;2022-12-31T12:20:17;3.27;;;1.70;;
50301;SDS011;36550;50.472;19.744;2022-12-31T12:23:20;3.47;;;1.75;;
50301;SDS011;36550;50.472;19.744;2022-12-31T12:26:24;3.90;;;1.67;;
50301;SDS011;36550;50.472;19.744;2022-12-31T12:29:28;2.98;;;1.80;;
50301;SDS011;36550;50.472;19.744;2022-12-31T12:32:24;5.08;;;2.00;;
50301;SDS011;36550;50.472;19.744;2022-12-31T12:35:14;4.00;;;1.80;;
50301;SDS011;36550;50.472;19.744;2022-12-31T12:38:05;3.10;;;1.70;;
50301;SDS011;36550;50.472;19.744;2022-12-31T12:41:04;3.50;;;1.90;;
50301;SDS011;36550;50.472;19.744;2022-12-31T12:44:05;5.62;;;2.10;;
50301;SDS011;36550;50.472;19.744;2022-12-31T12:46:53;4.10;;;2.17;;
50301;SDS011;36550;50.472;19.744;2022-12-31T12:49:39;5.90;;;2.20;;
50301;SDS011;36550;50.472;19.744;2022-12-31T12:52:34;4.60;;;2.52;;
50301;SDS011;36550;50.472;19.744;2022-12-31T12:55:45;4.70;;;2.60;;
50301;SDS011;36550;50.472;19.744;2022-12-31T13:02:01;5.80;;;1.90;;
50301;SDS011;36550;50.472;19.744;2022-12-31T13:08:02;4.60;;;2.45;;
50301;SDS011;36550;50.472;19.744;2022-12-31T13:11:07;3.52;;;1.98;;
50301;SDS011;36550;50.472;19.744;2022-12-31T13:20:35;4.17;;;1.98;;
50301;SDS011;36550;50.472;19.744;2022-12-31T13:23:40;4.45;;;2.10;;
50301;SDS011;36550;50.472;19.744;2022-12-31T13:29:44;5.28;;;2.35;;
50301;SDS011;36550;50.472;19.744;2022-12-31T13:35:45;5.83;;;2.37;;
50301;SDS011;36550;50.472;19.744;2022-12-31T13:38:45;3.72;;;1.95;;
50301;SDS011;36550;50.472;19.744;2022-12-31T13:41:37;4.33;;;1.95;;
50301;SDS011;36550;50.472;19.744;2022-12-31T13:44:30;6.62;;;2.10;;
50301;SDS011;36550;50.472;19.744;2022-12-31T13:56:21;4.00;;;2.02;;
50301;SDS011;36550;50.472;19.744;2022-12-31T13:59:13;11.97;;;3.67;;
50301;SDS011;36550;50.472;19.744;2022-12-31T14:05:28;5.53;;;2.65;;
50301;SDS011;36550;50.472;19.744;2022-12-31T14:08:21;5.20;;;3.00;;
50301;SDS011;36550;50.472;19.744;2022-12-31T14:11:13;4.83;;;2.50;;
50301;SDS011;36550;50.472;19.744;2022-12-31T14:15:05;7.58;;;2.33;;
50301;SDS011;36550;50.472;19.744;2022-12-31T14:26:54;4.92;;;2.30;;
50301;SDS011;36550;50.472;19.744;2022-12-31T14:29:43;5.60;;;2.75;;
50301;SDS011;36550;50.472;19.744;2022-12-31T14:32:56;5.97;;;2.37;;
50301;SDS011;36550;50.472;19.744;2022-12-31T14:35:52;5.25;;;2.45;;
50301;SDS011;36550;50.472;19.744;2022-12-31T14:38:54;4.87;;;2.60;;
50301;SDS011;36550;50.472;19.744;2022-12-31T14:48:54;4.85;;;2.58;;
50301;SDS011;36550;50.472;19.744;2022-12-31T14:51:42;5.97;;;2.62;;
50301;SDS011;36550;50.472;19.744;2022-12-31T14:54:28;5.65;;;2.45;;
50301;SDS011;36550;50.472;19.744;2022-12-31T14:57:25;5.58;;;2.70;;
50301;SDS011;36550;50.472;19.744;2022-12-31T15:00:38;11.20;;;5.00;;
50301;SDS011;36550;50.472;19.744;2022-12-31T15:09:18;9.25;;;3.58;;
50301;SDS011;36550;50.472;19.744;2022-12-31T15:12:17;10.90;;;4.70;;
50301;SDS011;36550;50.472;19.744;2022-12-31T15:15:24;6.78;;;3.37;;
50301;SDS011;36550;50.472;19.744;2022-12-31T15:24:44;6.85;;;3.10;;
50301;SDS011;36550;50.472;19.744;2022-12-31T15:27:34;7.75;;;3.67;;
50301;SDS011;36550;50.472;19.744;2022-12-31T15:33:38;10.20;;;3.72;;
50301;SDS011;36550;50.472;19.744;2022-12-31T15:36:25;7.12;;;3.08;;
50301;SDS011;36550;50.472;19.744;2022-12-31T15:45:32;6.85;;;3.15;;
50301;SDS011;36550;50.472;19.744;2022-12-31T15:51:31;5.12;;;2.60;;
50301;SDS011;36550;50.472;19.744;2022-12-31T15:54:38;7.62;;;3.05;;
50301;SDS011;36550;50.472;19.744;2022-12-31T15:57:29;9.65;;;3.42;;
50301;SDS011;36550;50.472;19.744;2022-12-31T16:00:20;6.85;;;3.40;;
50301;SDS011;36550;50.472;19.744;2022-12-31T16:03:09;6.92;;;3.27;;
50301;SDS011;36550;50.472;19.744;2022-12-31T16:06:11;5.55;;;2.95;;
50301;SDS011;36550;50.472;19.744;2022-12-31T16:08:57;6.92;;;3.08;;
50301;SDS011;36550;50.472;19.744;2022-12-31T16:11:42;4.92;;;2.62;;
50301;SDS011;36550;50.472;19.744;2022-12-31T16:14:37;7.55;;;3.20;;
50301;SDS011;36550;50.472;19.744;2022-12-31T16:20:21;9.85;;;3.58;;
50301;SDS011;36550;50.472;19.744;2022-12-31T16:23:30;8.08;;;3.47;;
50301;SDS011;36550;50.472;19.744;2022-12-31T16:26:07;5.55;;;3.20;;
50301;SDS011;36550;50.472;19.744;2022-12-31T16:28:55;6.95;;;3.45;;
50301;SDS011;36550;50.472;19.744;2022-12-31T16:31:43;7.67;;;3.65;;
50301;SDS011;36550;50.472;19.744;2022-12-31T16:34:34;6.08;;;3.08;;
50301;SDS011;36550;50.472;19.744;2022-12-31T16:37:20;6.75;;;3.17;;
50301;SDS011;36550;50.472;19.744;2022-12-31T16:40:07;8.90;;;4.83;;
50301;SDS011;36550;50.472;19.744;2022-12-31T16:43:01;10.45;;;4.72;;
50301;SDS011;36550;50.472;19.744;2022-12-31T16:45:45;7.83;;;4.40;;
50301;SDS011;36550;50.472;19.744;2022-12-31T16:48:30;8.70;;;4.08;;
50301;SDS011;36550;50.472;19.744;2022-12-31T16:51:16;8.68;;;4.33;;
50301;SDS011;36550;50.472;19.744;2022-12-31T16:54:03;8.78;;;3.98;;
50301;SDS011;36550;50.472;19.744;2022-12-31T16:56:48;7.45;;;3.80;;
50301;SDS011;36550;50.472;19.744;2022-12-31T16:59:35;7.10;;;3.70;;
50301;SDS011;36550;50.472;19.744;2022-12-31T17:02:26;8.55;;;4.15;;
50301;SDS011;36550;50.472;19.744;2022-12-31T17:05:22;7.83;;;3.83;;
50301;SDS011;36550;50.472;19.744;2022-12-31T17:08:26;7.62;;;3.95;;
50301;SDS011;36550;50.472;19.744;2022-12-31T17:14:26;8.45;;;4.08;;
50301;SDS011;36550;50.472;19.744;2022-12-31T17:17:13;13.18;;;4.72;;
50301;SDS011;36550;50.472;19.744;2022-12-31T17:20:06;10.68;;;4.80;;
50301;SDS011;36550;50.472;19.744;2022-12-31T17:22:52;8.73;;;4.35;;
50301;SDS011;36550;50.472;19.744;2022-12-31T17:25:41;10.43;;;4.47;;
50301;SDS011;36550;50.472;19.744;2022-12-31T17:28:25;9.63;;;4.12;;
50301;SDS011;36550;50.472;19.744;2022-12-31T17:31:33;9.08;;;4.10;;
50301;SDS011;36550;50.472;19.744;2022-12-31T17:34:21;9.98;;;4.80;;
50301;SDS011;36550;50.472;19.744;2022-12-31T17:39:56;10.43;;;4.53;;
50301;SDS011;36550;50.472;19.744;2022-12-31T17:42:44;8.30;;;4.37;;
50301;SDS011;36550;50.472;19.744;2022-12-31T17:45:29;7.00;;;4.40;;
50301;SDS011;36550;50.472;19.744;2022-12-31T17:48:17;8.35;;;4.00;;
50301;SDS011;36550;50.472;19.744;2022-12-31T17:51:02;8.43;;;4.50;;
50301;SDS011;36550;50.472;19.744;2022-12-31T17:53:47;8.58;;;4.10;;
50301;SDS011;36550;50.472;19.744;2022-12-31T17:56:32;9.33;;;4.35;;
50301;SDS011;36550;50.472;19.744;2022-12-31T17:59:17;9.35;;;4.70;;
50301;SDS011;36550;50.472;19.744;2022-12-31T18:02:08;10.23;;;5.05;;
50301;SDS011;36550;50.472;19.744;2022-12-31T18:04:53;9.30;;;5.12;;
50301;SDS011;36550;50.472;19.744;2022-12-31T18:07:37;11.78;;;4.92;;
50301;SDS011;36550;50.472;19.744;2022-12-31T18:10:22;9.28;;;4.65;;
50301;SDS011;36550;50.472;19.744;2022-12-31T18:15:58;12.82;;;4.85;;
50301;SDS011;36550;50.472;19.744;2022-12-31T18:18:42;11.28;;;5.60;;
50301;SDS011;36550;50.472;19.744;2022-12-31T18:21:28;10.28;;;5.60;;
50301;SDS011;36550;50.472;19.744;2022-12-31T18:24:16;11.10;;;5.40;;
50301;SDS011;36550;50.472;19.744;2022-12-31T18:27:01;14.18;;;5.25;;
50301;SDS011;36550;50.472;19.744;2022-12-31T18:29:45;10.00;;;5.33;;
50301;SDS011;36550;50.472;19.744;2022-12-31T18:32:30;11.43;;;5.95;;
50301;SDS011;36550;50.472;19.744;2022-12-31T18:35:16;10.65;;;5.05;;
50301;SDS011;36550;50.472;19.744;2022-12-31T18:38:04;11.15;;;5.92;;
50301;SDS011;36550;50.472;19.744;2022-12-31T18:40:57;10.08;;;5.00;;
50301;SDS011;36550;50.472;19.744;2022-12-31T18:43:42;10.48;;;5.55;;
50301;SDS011;36550;50.472;19.744;2022-12-31T18:46:26;9.40;;;4.92;;
50301;SDS011;36550;50.472;19.744;2022-12-31T18:49:11;10.50;;;5.05;;
50301;SDS011;36550;50.472;19.744;2022-12-31T18:51:55;9.85;;;5.03;;
50301;SDS011;36550;50.472;19.744;2022-12-31T18:54:39;14.25;;;5.47;;
50301;SDS011;36550;50.472;19.744;2022-12-31T18:57:25;8.95;;;5.08;;
50301;SDS011;36550;50.472;19.744;2022-12-31T19:00:10;12.80;;;6.03;;
50301;SDS011;36550;50.472;19.744;2022-12-31T19:02:59;10.70;;;5.75;;
50301;SDS011;36550;50.472;19.744;2022-12-31T19:05:42;15.50;;;8.10;;
50301;SDS011;36550;50.472;19.744;2022-12-31T19:08:28;10.98;;;5.67;;
50301;SDS011;36550;50.472;19.744;2022-12-31T19:11:14;10.65;;;4.53;;
50301;SDS011;36550;50.472;19.744;2022-12-31T19:13:58;10.45;;;4.90;;
50301;SDS011;36550;50.472;19.744;2022-12-31T19:16:47;13.15;;;5.72;;
50301;SDS011;36550;50.472;19.744;2022-12-31T19:19:29;10.70;;;4.90;;
50301;SDS011;36550;50.472;19.744;2022-12-31T19:22:13;9.63;;;5.40;;
50301;SDS011;36550;50.472;19.744;2022-12-31T19:24:58;10.50;;;5.08;;
50301;SDS011;36550;50.472;19.744;2022-12-31T19:27:42;12.73;;;5.03;;
50301;SDS011;36550;50.472;19.744;2022-12-31T19:30:28;9.95;;;5.28;;
50301;SDS011;36550;50.472;19.744;2022-12-31T19:33:15;12.35;;;5.37;;
50301;SDS011;36550;50.472;19.744;2022-12-31T19:36:00;9.78;;;5.85;;
50301;SDS011;36550;50.472;19.744;2022-12-31T19:38:44;11.50;;;5.33;;
50301;SDS011;36550;50.472;19.744;2022-12-31T19:41:29;12.28;;;5.12;;
50301;SDS011;36550;50.472;19.744;2022-12-31T19:44:18;10.13;;;5.35;;
50301;SDS011;36550;50.472;19.744;2022-12-31T19:47:01;9.08;;;4.87;;
50301;SDS011;36550;50.472;19.744;2022-12-31T19:49:45;11.15;;;5.35;;
50301;SDS011;36550;50.472;19.744;2022-12-31T19:52:29;9.95;;;5.03;;
50301;SDS011;36550;50.472;19.744;2022-12-31T19:55:16;9.63;;;4.62;;
50301;SDS011;36550;50.472;19.744;2022-12-31T19:58:02;10.05;;;5.20;;
50301;SDS011;36550;50.472;19.744;2022-12-31T20:00:46;10.43;;;4.97;;
50301;SDS011;36550;50.472;19.744;2022-12-31T20:03:31;11.90;;;4.90;;
50301;SDS011;36550;50.472;19.744;2022-12-31T20:06:16;10.43;;;4.95;;
50301;SDS011;36550;50.472;19.744;2022-12-31T20:09:01;9.85;;;5.10;;
50301;SDS011;36550;50.472;19.744;2022-12-31T20:11:46;11.28;;;5.30;;
50301;SDS011;36550;50.472;19.744;2022-12-31T20:14:30;9.73;;;5.30;;
50301;SDS011;36550;50.472;19.744;2022-12-31T20:17:15;9.50;;;4.33;;
50301;SDS011;36550;50.472;19.744;2022-12-31T20:19:59;11.78;;;4.85;;
50301;SDS011;36550;50.472;19.744;2022-12-31T20:22:43;13.18;;;5.28;;
50301;SDS011;36550;50.472;19.744;2022-12-31T20:25:28;10.20;;;5.00;;
50301;SDS011;36550;50.472;19.744;2022-12-31T20:28:12;12.13;;;4.97;;